sensor_id;sensor_type;location;lat;lon;timestamp;P1;durP1;ratioP1;P2;durP2;ratioP2
77705;SDS011;66874;45.274;5.880;2023-07-31T00:01:14;2.17;;;1.23;;
77705;SDS011;66874;45.274;5.880;2023-07-31T00:03:39;2.00;;;1.20;;
77705;SDS011;66874;45.274;5.880;2023-07-31T00:06:05;3.05;;;1.23;;
77705;SDS011;66874;45.274;5.880;2023-07-31T00:08:30;2.25;;;1.30;;
77705;SDS011;66874;45.274;5.880;2023-07-31T00:10:56;2.22;;;1.33;;
77705;SDS011;66874;45.274;5.880;2023-07-31T00:13:21;5.50;;;1.77;;
77705;SDS011;66874;45.274;5.880;2023-07-31T00:15:46;3.47;;;1.45;;
77705;SDS011;66874;45.274;5.880;2023-07-31T00:18:12;2.85;;;1.42;;
77705;SDS011;66874;45.274;5.880;2023-07-31T00:20:37;2.97;;;1.27;;
77705;SDS011;66874;45.274;5.880;2023-07-31T00:23:03;2.63;;;1.30;;
77705;SDS011;66874;45.274;5.880;2023-07-31T00:25:28;2.45;;;1.17;;
77705;SDS011;66874;45.274;5.880;2023-07-31T00:27:54;4.28;;;1.33;;
77705;SDS011;66874;45.274;5.880;2023-07-31T00:30:19;6.10;;;1.35;;
77705;SDS011;66874;45.274;5.880;2023-07-31T00:32:44;4.45;;;1.40;;
77705;SDS011;66874;45.274;5.880;2023-07-31T00:35:10;4.40;;;1.55;;
77705;SDS011;66874;45.274;5.880;2023-07-31T00:37:35;3.70;;;1.27;;
77705;SDS011;66874;45.274;5.880;2023-07-31T00:40:00;5.28;;;1.55;;
77705;SDS011;66874;45.274;5.880;2023-07-31T00:42:28;4.95;;;1.33;;
77705;SDS011;66874;45.274;5.880;2023-07-31T00:44:53;3.92;;;2.13;;
77705;SDS011;66874;45.274;5.880;2023-07-31T00:47:19;2.60;;;1.30;;
77705;SDS011;66874;45.274;5.880;2023-07-31T00:49:44;3.55;;;1.35;;
77705;SDS011;66874;45.274;5.880;2023-07-31T00:52:10;2.55;;;1.13;;
77705;SDS011;66874;45.274;5.880;2023-07-31T00:54:35;2.72;;;1.60;;
77705;SDS011;66874;45.274;5.880;2023-07-31T00:57:01;6.20;;;1.33;;
77705;SDS011;66874;45.274;5.880;2023-07-31T00:59:27;4.45;;;1.40;;
77705;SDS011;66874;45.274;5.880;2023-07-31T01:01:53;2.28;;;1.27;;
77705;SDS011;66874;45.274;5.880;2023-07-31T01:04:18;1.90;;;1.20;;
77705;SDS011;66874;45.274;5.880;2023-07-31T01:12:47;2.90;;;1.40;;
77705;SDS011;66874;45.274;5.880;2023-07-31T01:15:13;3.20;;;1.48;;
77705;SDS011;66874;45.274;5.880;2023-07-31T01:17:42;4.07;;;1.40;;
77705;SDS011;66874;45.274;5.880;2023-07-31T01:20:15;3.03;;;1.88;;
77705;SDS011;66874;45.274;5.880;2023-07-31T01:25:50;5.15;;;1.25;;
77705;SDS011;66874;45.274;5.880;2023-07-31T01:28:19;2.53;;;1.30;;
77705;SDS011;66874;45.274;5.880;2023-07-31T01:30:48;4.25;;;1.33;;
77705;SDS011;66874;45.274;5.880;2023-07-31T01:33:17;1.45;;;1.00;;
77705;SDS011;66874;45.274;5.880;2023-07-31T01:35:44;7.57;;;1.80;;
77705;SDS011;66874;45.274;5.880;2023-07-31T01:38:11;1.40;;;1.02;;
77705;SDS011;66874;45.274;5.880;2023-07-31T01:40:37;7.25;;;1.73;;
77705;SDS011;66874;45.274;5.880;2023-07-31T01:43:02;1.70;;;1.20;;
77705;SDS011;66874;45.274;5.880;2023-07-31T01:45:28;1.77;;;1.42;;
77705;SDS011;66874;45.274;5.880;2023-07-31T01:47:53;3.45;;;1.60;;
77705;SDS011;66874;45.274;5.880;2023-07-31T01:50:18;3.35;;;1.70;;
77705;SDS011;66874;45.274;5.880;2023-07-31T01:52:44;4.75;;;2.13;;
77705;SDS011;66874;45.274;5.880;2023-07-31T01:55:09;6.80;;;2.85;;
77705;SDS011;66874;45.274;5.880;2023-07-31T01:57:36;5.82;;;3.20;;
77705;SDS011;66874;45.274;5.880;2023-07-31T02:00:02;7.47;;;3.33;;
77705;SDS011;66874;45.274;5.880;2023-07-31T02:02:27;5.10;;;3.00;;
77705;SDS011;66874;45.274;5.880;2023-07-31T02:04:53;5.40;;;2.92;;
77705;SDS011;66874;45.274;5.880;2023-07-31T02:07:18;9.48;;;3.65;;
77705;SDS011;66874;45.274;5.880;2023-07-31T02:09:43;10.80;;;4.47;;
77705;SDS011;66874;45.274;5.880;2023-07-31T02:12:09;12.32;;;4.97;;
77705;SDS011;66874;45.274;5.880;2023-07-31T02:14:34;10.00;;;4.28;;
77705;SDS011;66874;45.274;5.880;2023-07-31T02:17:00;11.05;;;4.60;;
77705;SDS011;66874;45.274;5.880;2023-07-31T02:19:25;8.65;;;5.13;;
77705;SDS011;66874;45.274;5.880;2023-07-31T02:21:50;9.98;;;4.72;;
77705;SDS011;66874;45.274;5.880;2023-07-31T02:24:16;10.85;;;4.72;;
77705;SDS011;66874;45.274;5.880;2023-07-31T02:26:41;10.80;;;4.47;;
77705;SDS011;66874;45.274;5.880;2023-07-31T02:29:07;8.40;;;3.75;;
77705;SDS011;66874;45.274;5.880;2023-07-31T02:31:33;4.75;;;2.40;;
77705;SDS011;66874;45.274;5.880;2023-07-31T02:33:58;6.32;;;2.60;;
77705;SDS011;66874;45.274;5.880;2023-07-31T02:36:24;9.35;;;3.40;;
77705;SDS011;66874;45.274;5.880;2023-07-31T02:38:49;5.93;;;3.03;;
77705;SDS011;66874;45.274;5.880;2023-07-31T02:41:15;7.00;;;4.10;;
77705;SDS011;66874;45.274;5.880;2023-07-31T02:43:40;9.25;;;4.90;;
77705;SDS011;66874;45.274;5.880;2023-07-31T02:46:05;8.80;;;4.85;;
77705;SDS011;66874;45.274;5.880;2023-07-31T02:48:31;7.55;;;3.90;;
77705;SDS011;66874;45.274;5.880;2023-07-31T02:50:56;7.40;;;3.33;;
77705;SDS011;66874;45.274;5.880;2023-07-31T02:53:22;7.50;;;2.85;;
77705;SDS011;66874;45.274;5.880;2023-07-31T02:55:48;4.20;;;1.77;;
77705;SDS011;66874;45.274;5.880;2023-07-31T02:58:13;1.70;;;1.08;;
77705;SDS011;66874;45.274;5.880;2023-07-31T03:00:45;3.45;;;1.70;;
77705;SDS011;66874;45.274;5.880;2023-07-31T03:03:10;3.65;;;2.38;;
77705;SDS011;66874;45.274;5.880;2023-07-31T03:05:36;5.00;;;1.60;;
77705;SDS011;66874;45.274;5.880;2023-07-31T03:08:01;3.80;;;1.25;;
77705;SDS011;66874;45.274;5.880;2023-07-31T03:10:27;4.63;;;1.50;;
77705;SDS011;66874;45.274;5.880;2023-07-31T03:12:52;4.10;;;1.60;;
77705;SDS011;66874;45.274;5.880;2023-07-31T03:15:18;1.73;;;1.48;;
77705;SDS011;66874;45.274;5.880;2023-07-31T03:17:43;4.53;;;1.85;;
77705;SDS011;66874;45.274;5.880;2023-07-31T03:20:09;2.42;;;1.58;;
77705;SDS011;66874;45.274;5.880;2023-07-31T03:22:34;2.28;;;1.50;;
77705;SDS011;66874;45.274;5.880;2023-07-31T03:25:00;5.55;;;1.85;;
77705;SDS011;66874;45.274;5.880;2023-07-31T03:27:26;4.80;;;1.42;;
77705;SDS011;66874;45.274;5.880;2023-07-31T03:29:52;4.82;;;1.90;;
77705;SDS011;66874;45.274;5.880;2023-07-31T03:32:17;6.30;;;2.30;;
77705;SDS011;66874;45.274;5.880;2023-07-31T03:34:42;3.50;;;1.30;;
77705;SDS011;66874;45.274;5.880;2023-07-31T03:37:08;3.10;;;1.48;;
77705;SDS011;66874;45.274;5.880;2023-07-31T03:39:34;2.03;;;1.27;;
77705;SDS011;66874;45.274;5.880;2023-07-31T03:42:00;3.25;;;1.30;;
77705;SDS011;66874;45.274;5.880;2023-07-31T03:44:25;2.65;;;1.83;;
77705;SDS011;66874;45.274;5.880;2023-07-31T03:46:51;2.20;;;1.52;;
77705;SDS011;66874;45.274;5.880;2023-07-31T03:49:16;2.50;;;1.80;;
77705;SDS011;66874;45.274;5.880;2023-07-31T03:51:42;5.30;;;2.28;;
77705;SDS011;66874;45.274;5.880;2023-07-31T03:54:07;4.43;;;2.08;;
77705;SDS011;66874;45.274;5.880;2023-07-31T03:56:33;4.80;;;1.85;;
77705;SDS011;66874;45.274;5.880;2023-07-31T03:58:58;6.63;;;2.40;;
77705;SDS011;66874;45.274;5.880;2023-07-31T04:01:24;5.60;;;1.80;;
77705;SDS011;66874;45.274;5.880;2023-07-31T04:03:49;3.65;;;2.20;;
77705;SDS011;66874;45.274;5.880;2023-07-31T04:06:15;5.72;;;1.63;;
77705;SDS011;66874;45.274;5.880;2023-07-31T04:08:43;3.03;;;1.52;;
77705;SDS011;66874;45.274;5.880;2023-07-31T04:11:09;4.63;;;2.00;;
77705;SDS011;66874;45.274;5.880;2023-07-31T04:13:35;4.22;;;1.58;;
77705;SDS011;66874;45.274;5.880;2023-07-31T04:16:00;3.60;;;1.50;;
77705;SDS011;66874;45.274;5.880;2023-07-31T04:18:25;4.28;;;2.10;;
77705;SDS011;66874;45.274;5.880;2023-07-31T04:20:51;1.70;;;1.27;;
77705;SDS011;66874;45.274;5.880;2023-07-31T04:23:16;4.93;;;1.80;;
77705;SDS011;66874;45.274;5.880;2023-07-31T04:25:42;3.55;;;1.50;;
77705;SDS011;66874;45.274;5.880;2023-07-31T04:28:07;3.10;;;1.42;;
77705;SDS011;66874;45.274;5.880;2023-07-31T04:30:34;2.08;;;1.40;;
77705;SDS011;66874;45.274;5.880;2023-07-31T04:32:59;2.97;;;1.77;;
77705;SDS011;66874;45.274;5.880;2023-07-31T04:35:24;2.97;;;1.55;;
77705;SDS011;66874;45.274;5.880;2023-07-31T04:37:50;5.40;;;1.77;;
77705;SDS011;66874;45.274;5.880;2023-07-31T04:40:16;3.55;;;1.75;;
77705;SDS011;66874;45.274;5.880;2023-07-31T04:42:41;5.07;;;1.67;;
77705;SDS011;66874;45.274;5.880;2023-07-31T04:45:08;4.13;;;1.90;;
77705;SDS011;66874;45.274;5.880;2023-07-31T04:47:33;5.70;;;2.00;;
77705;SDS011;66874;45.274;5.880;2023-07-31T04:49:59;7.13;;;1.67;;
77705;SDS011;66874;45.274;5.880;2023-07-31T04:52:24;3.97;;;1.52;;
77705;SDS011;66874;45.274;5.880;2023-07-31T04:54:50;3.17;;;1.63;;
77705;SDS011;66874;45.274;5.880;2023-07-31T04:57:15;3.55;;;1.90;;
77705;SDS011;66874;45.274;5.880;2023-07-31T04:59:40;5.85;;;1.80;;
77705;SDS011;66874;45.274;5.880;2023-07-31T05:02:07;4.43;;;1.90;;
77705;SDS011;66874;45.274;5.880;2023-07-31T05:04:33;5.20;;;2.20;;
77705;SDS011;66874;45.274;5.880;2023-07-31T05:06:59;5.07;;;2.38;;
77705;SDS011;66874;45.274;5.880;2023-07-31T05:09:24;3.90;;;2.05;;
77705;SDS011;66874;45.274;5.880;2023-07-31T05:11:49;4.45;;;2.00;;
77705;SDS011;66874;45.274;5.880;2023-07-31T05:14:15;6.72;;;1.90;;
77705;SDS011;66874;45.274;5.880;2023-07-31T05:16:41;5.10;;;1.88;;
77705;SDS011;66874;45.274;5.880;2023-07-31T05:19:06;2.80;;;1.83;;
77705;SDS011;66874;45.274;5.880;2023-07-31T05:21:32;3.53;;;1.80;;
77705;SDS011;66874;45.274;5.880;2023-07-31T05:23:57;7.47;;;2.42;;
77705;SDS011;66874;45.274;5.880;2023-07-31T05:26:23;5.22;;;2.08;;
77705;SDS011;66874;45.274;5.880;2023-07-31T05:28:48;6.38;;;1.80;;
77705;SDS011;66874;45.274;5.880;2023-07-31T05:31:14;5.03;;;1.80;;
77705;SDS011;66874;45.274;5.880;2023-07-31T05:33:39;3.75;;;2.33;;
77705;SDS011;66874;45.274;5.880;2023-07-31T05:36:04;4.55;;;1.67;;
77705;SDS011;66874;45.274;5.880;2023-07-31T05:38:30;3.55;;;1.60;;
77705;SDS011;66874;45.274;5.880;2023-07-31T05:40:55;3.45;;;1.73;;
77705;SDS011;66874;45.274;5.880;2023-07-31T05:43:21;5.15;;;2.30;;
77705;SDS011;66874;45.274;5.880;2023-07-31T05:45:46;6.47;;;2.33;;
77705;SDS011;66874;45.274;5.880;2023-07-31T05:48:12;3.30;;;1.80;;
77705;SDS011;66874;45.274;5.880;2023-07-31T05:50:37;7.00;;;1.75;;
77705;SDS011;66874;45.274;5.880;2023-07-31T05:53:05;5.95;;;2.03;;
77705;SDS011;66874;45.274;5.880;2023-07-31T05:55:31;4.13;;;1.58;;
77705;SDS011;66874;45.274;5.880;2023-07-31T05:57:56;3.55;;;1.40;;
77705;SDS011;66874;45.274;5.880;2023-07-31T06:00:22;5.80;;;2.03;;
77705;SDS011;66874;45.274;5.880;2023-07-31T06:02:47;4.07;;;2.20;;
77705;SDS011;66874;45.274;5.880;2023-07-31T06:05:13;6.05;;;2.00;;
77705;SDS011;66874;45.274;5.880;2023-07-31T06:07:39;3.15;;;2.13;;
77705;SDS011;66874;45.274;5.880;2023-07-31T06:10:05;2.47;;;1.67;;
77705;SDS011;66874;45.274;5.880;2023-07-31T06:12:31;5.05;;;2.13;;
77705;SDS011;66874;45.274;5.880;2023-07-31T06:14:57;6.40;;;1.88;;
77705;SDS011;66874;45.274;5.880;2023-07-31T06:17:22;2.95;;;1.70;;
77705;SDS011;66874;45.274;5.880;2023-07-31T06:19:48;3.13;;;1.65;;
77705;SDS011;66874;45.274;5.880;2023-07-31T06:22:14;4.80;;;1.95;;
77705;SDS011;66874;45.274;5.880;2023-07-31T06:24:40;5.82;;;1.92;;
77705;SDS011;66874;45.274;5.880;2023-07-31T06:27:05;4.78;;;1.70;;
77705;SDS011;66874;45.274;5.880;2023-07-31T06:29:31;7.05;;;2.03;;
77705;SDS011;66874;45.274;5.880;2023-07-31T06:31:57;4.22;;;2.20;;
77705;SDS011;66874;45.274;5.880;2023-07-31T06:34:23;5.43;;;2.05;;
77705;SDS011;66874;45.274;5.880;2023-07-31T06:36:48;2.55;;;1.55;;
77705;SDS011;66874;45.274;5.880;2023-07-31T06:39:13;3.72;;;1.83;;
77705;SDS011;66874;45.274;5.880;2023-07-31T06:41:39;2.80;;;1.77;;
77705;SDS011;66874;45.274;5.880;2023-07-31T06:44:04;2.97;;;1.60;;
77705;SDS011;66874;45.274;5.880;2023-07-31T06:46:29;4.60;;;1.70;;
77705;SDS011;66874;45.274;5.880;2023-07-31T06:48:55;3.85;;;1.55;;
77705;SDS011;66874;45.274;5.880;2023-07-31T06:51:20;6.72;;;2.00;;
77705;SDS011;66874;45.274;5.880;2023-07-31T06:53:46;9.07;;;2.25;;
77705;SDS011;66874;45.274;5.880;2023-07-31T06:56:11;5.25;;;2.58;;
77705;SDS011;66874;45.274;5.880;2023-07-31T06:58:37;3.60;;;1.85;;
77705;SDS011;66874;45.274;5.880;2023-07-31T07:01:02;6.18;;;2.38;;
77705;SDS011;66874;45.274;5.880;2023-07-31T07:03:28;4.40;;;1.95;;
77705;SDS011;66874;45.274;5.880;2023-07-31T07:05:54;5.03;;;1.75;;
77705;SDS011;66874;45.274;5.880;2023-07-31T07:08:19;4.07;;;1.30;;
77705;SDS011;66874;45.274;5.880;2023-07-31T07:10:44;9.98;;;2.10;;
77705;SDS011;66874;45.274;5.880;2023-07-31T07:13:10;4.65;;;1.40;;
77705;SDS011;66874;45.274;5.880;2023-07-31T07:15:35;5.68;;;1.42;;
77705;SDS011;66874;45.274;5.880;2023-07-31T07:18:01;4.47;;;1.90;;
77705;SDS011;66874;45.274;5.880;2023-07-31T07:20:26;2.40;;;1.35;;
77705;SDS011;66874;45.274;5.880;2023-07-31T07:22:51;3.72;;;1.67;;
77705;SDS011;66874;45.274;5.880;2023-07-31T07:25:17;2.63;;;1.60;;
77705;SDS011;66874;45.274;5.880;2023-07-31T07:27:42;6.82;;;1.83;;
77705;SDS011;66874;45.274;5.880;2023-07-31T07:30:09;3.15;;;1.50;;
77705;SDS011;66874;45.274;5.880;2023-07-31T07:32:34;1.67;;;1.17;;
77705;SDS011;66874;45.274;5.880;2023-07-31T07:35:00;2.20;;;1.60;;
77705;SDS011;66874;45.274;5.880;2023-07-31T07:37:25;6.35;;;2.13;;
77705;SDS011;66874;45.274;5.880;2023-07-31T07:39:50;3.20;;;1.92;;
77705;SDS011;66874;45.274;5.880;2023-07-31T07:42:16;3.40;;;1.65;;
77705;SDS011;66874;45.274;5.880;2023-07-31T07:44:41;4.25;;;1.80;;
77705;SDS011;66874;45.274;5.880;2023-07-31T07:47:07;3.58;;;2.00;;
77705;SDS011;66874;45.274;5.880;2023-07-31T07:49:33;4.28;;;2.08;;
77705;SDS011;66874;45.274;5.880;2023-07-31T07:51:59;6.25;;;1.80;;
77705;SDS011;66874;45.274;5.880;2023-07-31T07:54:25;2.78;;;1.73;;
77705;SDS011;66874;45.274;5.880;2023-07-31T07:56:50;6.38;;;1.90;;
77705;SDS011;66874;45.274;5.880;2023-07-31T07:59:16;3.17;;;1.65;;
77705;SDS011;66874;45.274;5.880;2023-07-31T08:01:41;4.97;;;2.17;;
77705;SDS011;66874;45.274;5.880;2023-07-31T08:04:06;1.88;;;1.45;;
77705;SDS011;66874;45.274;5.880;2023-07-31T08:06:32;4.55;;;1.50;;
77705;SDS011;66874;45.274;5.880;2023-07-31T08:08:57;2.17;;;1.35;;
77705;SDS011;66874;45.274;5.880;2023-07-31T08:11:23;7.38;;;2.38;;
77705;SDS011;66874;45.274;5.880;2023-07-31T08:13:49;6.05;;;1.42;;
77705;SDS011;66874;45.274;5.880;2023-07-31T08:16:14;3.58;;;1.67;;
77705;SDS011;66874;45.274;5.880;2023-07-31T08:18:40;5.22;;;1.67;;
77705;SDS011;66874;45.274;5.880;2023-07-31T08:21:07;4.93;;;1.70;;
77705;SDS011;66874;45.274;5.880;2023-07-31T08:23:33;2.92;;;1.60;;
77705;SDS011;66874;45.274;5.880;2023-07-31T08:25:58;4.95;;;1.98;;
77705;SDS011;66874;45.274;5.880;2023-07-31T08:28:23;7.07;;;1.73;;
77705;SDS011;66874;45.274;5.880;2023-07-31T08:30:50;4.95;;;1.85;;
77705;SDS011;66874;45.274;5.880;2023-07-31T08:33:16;5.68;;;1.83;;
77705;SDS011;66874;45.274;5.880;2023-07-31T08:35:41;5.13;;;2.13;;
77705;SDS011;66874;45.274;5.880;2023-07-31T08:38:07;5.38;;;2.10;;
77705;SDS011;66874;45.274;5.880;2023-07-31T08:40:35;4.90;;;1.80;;
77705;SDS011;66874;45.274;5.880;2023-07-31T08:43:02;3.47;;;1.88;;
77705;SDS011;66874;45.274;5.880;2023-07-31T08:45:28;4.13;;;2.00;;
77705;SDS011;66874;45.274;5.880;2023-07-31T08:47:54;6.45;;;2.25;;
77705;SDS011;66874;45.274;5.880;2023-07-31T08:50:22;3.53;;;1.40;;
77705;SDS011;66874;45.274;5.880;2023-07-31T08:52:48;8.20;;;2.03;;
77705;SDS011;66874;45.274;5.880;2023-07-31T08:57:40;2.63;;;1.30;;
77705;SDS011;66874;45.274;5.880;2023-07-31T09:00:07;4.28;;;1.50;;
77705;SDS011;66874;45.274;5.880;2023-07-31T09:02:35;2.92;;;1.70;;
77705;SDS011;66874;45.274;5.880;2023-07-31T09:05:07;3.80;;;1.60;;
77705;SDS011;66874;45.274;5.880;2023-07-31T09:07:35;2.83;;;1.70;;
77705;SDS011;66874;45.274;5.880;2023-07-31T09:10:01;3.67;;;1.70;;
77705;SDS011;66874;45.274;5.880;2023-07-31T09:12:27;5.15;;;2.75;;
77705;SDS011;66874;45.274;5.880;2023-07-31T09:14:53;3.78;;;1.67;;
77705;SDS011;66874;45.274;5.880;2023-07-31T09:17:28;3.63;;;1.83;;
77705;SDS011;66874;45.274;5.880;2023-07-31T09:19:57;6.03;;;1.75;;
77705;SDS011;66874;45.274;5.880;2023-07-31T09:22:37;5.07;;;2.20;;
77705;SDS011;66874;45.274;5.880;2023-07-31T09:27:53;3.83;;;1.58;;
77705;SDS011;66874;45.274;5.880;2023-07-31T09:30:24;4.28;;;1.90;;
77705;SDS011;66874;45.274;5.880;2023-07-31T09:32:51;4.43;;;1.60;;
77705;SDS011;66874;45.274;5.880;2023-07-31T09:35:30;2.65;;;1.50;;
77705;SDS011;66874;45.274;5.880;2023-07-31T09:38:03;3.38;;;1.40;;
77705;SDS011;66874;45.274;5.880;2023-07-31T09:40:38;5.35;;;1.95;;
77705;SDS011;66874;45.274;5.880;2023-07-31T09:43:05;4.10;;;2.00;;
77705;SDS011;66874;45.274;5.880;2023-07-31T09:45:38;6.13;;;1.70;;
77705;SDS011;66874;45.274;5.880;2023-07-31T09:48:11;3.78;;;1.75;;
77705;SDS011;66874;45.274;5.880;2023-07-31T09:50:39;6.97;;;1.90;;
77705;SDS011;66874;45.274;5.880;2023-07-31T09:53:06;3.63;;;1.58;;
77705;SDS011;66874;45.274;5.880;2023-07-31T09:55:33;3.58;;;1.42;;
77705;SDS011;66874;45.274;5.880;2023-07-31T09:57:59;3.55;;;2.20;;
77705;SDS011;66874;45.274;5.880;2023-07-31T10:00:29;4.13;;;1.88;;
77705;SDS011;66874;45.274;5.880;2023-07-31T10:02:55;6.78;;;2.35;;
77705;SDS011;66874;45.274;5.880;2023-07-31T10:05:27;3.17;;;1.88;;
77705;SDS011;66874;45.274;5.880;2023-07-31T10:07:58;3.17;;;2.28;;
77705;SDS011;66874;45.274;5.880;2023-07-31T10:10:23;5.75;;;2.20;;
77705;SDS011;66874;45.274;5.880;2023-07-31T10:12:51;2.65;;;1.70;;
77705;SDS011;66874;45.274;5.880;2023-07-31T10:15:17;2.55;;;1.73;;
77705;SDS011;66874;45.274;5.880;2023-07-31T10:17:44;4.15;;;1.80;;
77705;SDS011;66874;45.274;5.880;2023-07-31T10:20:12;6.18;;;2.38;;
77705;SDS011;66874;45.274;5.880;2023-07-31T10:22:41;8.38;;;3.42;;
77705;SDS011;66874;45.274;5.880;2023-07-31T10:25:07;4.78;;;1.98;;
77705;SDS011;66874;45.274;5.880;2023-07-31T10:27:35;3.38;;;1.63;;
77705;SDS011;66874;45.274;5.880;2023-07-31T10:30:00;5.57;;;1.73;;
77705;SDS011;66874;45.274;5.880;2023-07-31T10:32:29;7.82;;;2.45;;
77705;SDS011;66874;45.274;5.880;2023-07-31T10:34:55;4.80;;;2.08;;
77705;SDS011;66874;45.274;5.880;2023-07-31T10:37:25;2.92;;;1.67;;
77705;SDS011;66874;45.274;5.880;2023-07-31T10:42:59;7.30;;;2.20;;
77705;SDS011;66874;45.274;5.880;2023-07-31T10:45:31;5.20;;;2.22;;
77705;SDS011;66874;45.274;5.880;2023-07-31T10:47:59;6.55;;;2.13;;
77705;SDS011;66874;45.274;5.880;2023-07-31T10:50:27;2.63;;;1.40;;
77705;SDS011;66874;45.274;5.880;2023-07-31T10:52:54;4.38;;;1.52;;
77705;SDS011;66874;45.274;5.880;2023-07-31T10:57:54;4.38;;;1.88;;
77705;SDS011;66874;45.274;5.880;2023-07-31T11:00:29;5.00;;;2.33;;
77705;SDS011;66874;45.274;5.880;2023-07-31T11:02:59;5.38;;;1.75;;
77705;SDS011;66874;45.274;5.880;2023-07-31T11:05:43;4.32;;;1.70;;
77705;SDS011;66874;45.274;5.880;2023-07-31T11:08:45;4.03;;;1.83;;
77705;SDS011;66874;45.274;5.880;2023-07-31T11:11:13;2.13;;;1.40;;
77705;SDS011;66874;45.274;5.880;2023-07-31T11:13:47;4.32;;;1.80;;
77705;SDS011;66874;45.274;5.880;2023-07-31T11:16:23;3.25;;;1.58;;
77705;SDS011;66874;45.274;5.880;2023-07-31T11:18:50;3.55;;;2.00;;
77705;SDS011;66874;45.274;5.880;2023-07-31T11:21:18;3.70;;;1.80;;
77705;SDS011;66874;45.274;5.880;2023-07-31T11:23:48;4.10;;;1.73;;
77705;SDS011;66874;45.274;5.880;2023-07-31T11:26:14;3.63;;;1.80;;
77705;SDS011;66874;45.274;5.880;2023-07-31T11:28:40;3.83;;;1.33;;
77705;SDS011;66874;45.274;5.880;2023-07-31T11:31:08;4.90;;;1.92;;
77705;SDS011;66874;45.274;5.880;2023-07-31T11:33:35;2.50;;;1.60;;
77705;SDS011;66874;45.274;5.880;2023-07-31T11:36:00;6.80;;;1.70;;
77705;SDS011;66874;45.274;5.880;2023-07-31T11:40:53;4.90;;;1.80;;
77705;SDS011;66874;45.274;5.880;2023-07-31T11:45:47;10.43;;;1.77;;
77705;SDS011;66874;45.274;5.880;2023-07-31T11:48:19;6.25;;;2.15;;
77705;SDS011;66874;45.274;5.880;2023-07-31T11:50:46;2.78;;;1.65;;
77705;SDS011;66874;45.274;5.880;2023-07-31T11:53:14;4.13;;;1.85;;
77705;SDS011;66874;45.274;5.880;2023-07-31T11:55:41;4.32;;;1.98;;
77705;SDS011;66874;45.274;5.880;2023-07-31T11:58:07;2.83;;;1.90;;
77705;SDS011;66874;45.274;5.880;2023-07-31T12:00:33;3.53;;;1.80;;
77705;SDS011;66874;45.274;5.880;2023-07-31T12:02:59;5.10;;;2.13;;
77705;SDS011;66874;45.274;5.880;2023-07-31T12:05:24;2.08;;;1.65;;
77705;SDS011;66874;45.274;5.880;2023-07-31T12:07:51;3.60;;;1.67;;
77705;SDS011;66874;45.274;5.880;2023-07-31T12:13:09;2.63;;;1.75;;
77705;SDS011;66874;45.274;5.880;2023-07-31T12:15:39;3.65;;;1.70;;
77705;SDS011;66874;45.274;5.880;2023-07-31T12:18:06;3.83;;;1.75;;
77705;SDS011;66874;45.274;5.880;2023-07-31T12:20:34;5.47;;;1.80;;
77705;SDS011;66874;45.274;5.880;2023-07-31T12:22:59;2.97;;;1.70;;
77705;SDS011;66874;45.274;5.880;2023-07-31T12:25:29;5.67;;;1.90;;
77705;SDS011;66874;45.274;5.880;2023-07-31T12:27:55;6.97;;;1.88;;
77705;SDS011;66874;45.274;5.880;2023-07-31T12:30:34;3.83;;;1.70;;
77705;SDS011;66874;45.274;5.880;2023-07-31T12:35:40;4.25;;;2.05;;
77705;SDS011;66874;45.274;5.880;2023-07-31T12:38:07;3.55;;;2.00;;
77705;SDS011;66874;45.274;5.880;2023-07-31T12:40:32;1.47;;;1.37;;
77705;SDS011;66874;45.274;5.880;2023-07-31T12:43:00;4.00;;;1.93;;
77705;SDS011;66874;45.274;5.880;2023-07-31T12:45:27;4.45;;;1.92;;
77705;SDS011;66874;45.274;5.880;2023-07-31T12:47:52;3.10;;;2.23;;
77705;SDS011;66874;45.274;5.880;2023-07-31T12:50:18;2.70;;;1.70;;
77705;SDS011;66874;45.274;5.880;2023-07-31T12:52:43;3.53;;;1.80;;
77705;SDS011;66874;45.274;5.880;2023-07-31T12:55:09;4.93;;;2.00;;
77705;SDS011;66874;45.274;5.880;2023-07-31T13:00:01;3.20;;;1.90;;
77705;SDS011;66874;45.274;5.880;2023-07-31T13:02:26;3.53;;;1.43;;
77705;SDS011;66874;45.274;5.880;2023-07-31T13:04:52;4.53;;;1.90;;
77705;SDS011;66874;45.274;5.880;2023-07-31T13:07:19;3.80;;;1.70;;
77705;SDS011;66874;45.274;5.880;2023-07-31T13:09:44;5.07;;;1.80;;
77705;SDS011;66874;45.274;5.880;2023-07-31T13:12:10;3.20;;;1.90;;
77705;SDS011;66874;45.274;5.880;2023-07-31T13:14:35;5.70;;;1.90;;
77705;SDS011;66874;45.274;5.880;2023-07-31T13:17:01;5.47;;;1.80;;
77705;SDS011;66874;45.274;5.880;2023-07-31T13:19:26;2.27;;;1.67;;
77705;SDS011;66874;45.274;5.880;2023-07-31T13:21:51;9.87;;;1.97;;
77705;SDS011;66874;45.274;5.880;2023-07-31T13:24:17;2.70;;;1.73;;
77705;SDS011;66874;45.274;5.880;2023-07-31T13:26:42;3.03;;;2.00;;
77705;SDS011;66874;45.274;5.880;2023-07-31T13:29:07;3.00;;;2.00;;
77705;SDS011;66874;45.274;5.880;2023-07-31T13:31:33;5.83;;;2.43;;
77705;SDS011;66874;45.274;5.880;2023-07-31T13:33:58;6.40;;;1.87;;
77705;SDS011;66874;45.274;5.880;2023-07-31T13:36:24;5.77;;;2.30;;
77705;SDS011;66874;45.274;5.880;2023-07-31T13:38:49;6.03;;;1.90;;
77705;SDS011;66874;45.274;5.880;2023-07-31T13:41:14;4.00;;;2.23;;
77705;SDS011;66874;45.274;5.880;2023-07-31T13:43:40;2.97;;;2.00;;
77705;SDS011;66874;45.274;5.880;2023-07-31T13:46:06;3.72;;;2.70;;
77705;SDS011;66874;45.274;5.880;2023-07-31T13:48:35;3.60;;;1.80;;
77705;SDS011;66874;45.274;5.880;2023-07-31T13:51:01;3.28;;;1.80;;
77705;SDS011;66874;45.274;5.880;2023-07-31T13:53:26;5.53;;;1.90;;
77705;SDS011;66874;45.274;5.880;2023-07-31T13:55:52;2.63;;;1.80;;
77705;SDS011;66874;45.274;5.880;2023-07-31T13:58:17;4.93;;;1.97;;
77705;SDS011;66874;45.274;5.880;2023-07-31T14:00:43;3.17;;;1.90;;
77705;SDS011;66874;45.274;5.880;2023-07-31T14:03:08;2.83;;;2.00;;
77705;SDS011;66874;45.274;5.880;2023-07-31T14:05:34;2.95;;;2.08;;
77705;SDS011;66874;45.274;5.880;2023-07-31T14:08:00;2.97;;;2.17;;
77705;SDS011;66874;45.274;5.880;2023-07-31T14:10:25;4.53;;;2.20;;
77705;SDS011;66874;45.274;5.880;2023-07-31T14:12:51;2.47;;;2.00;;
77705;SDS011;66874;45.274;5.880;2023-07-31T14:15:16;6.17;;;2.20;;
77705;SDS011;66874;45.274;5.880;2023-07-31T14:17:42;2.93;;;1.80;;
77705;SDS011;66874;45.274;5.880;2023-07-31T14:20:07;4.53;;;1.73;;
77705;SDS011;66874;45.274;5.880;2023-07-31T14:22:33;5.15;;;2.10;;
77705;SDS011;66874;45.274;5.880;2023-07-31T14:24:59;4.23;;;2.07;;
77705;SDS011;66874;45.274;5.880;2023-07-31T14:27:25;3.95;;;2.15;;
77705;SDS011;66874;45.274;5.880;2023-07-31T14:29:51;3.00;;;2.00;;
77705;SDS011;66874;45.274;5.880;2023-07-31T14:32:16;4.93;;;2.03;;
77705;SDS011;66874;45.274;5.880;2023-07-31T14:34:41;4.00;;;1.97;;
77705;SDS011;66874;45.274;5.880;2023-07-31T14:37:07;6.00;;;1.80;;
77705;SDS011;66874;45.274;5.880;2023-07-31T14:39:32;2.93;;;2.13;;
77705;SDS011;66874;45.274;5.880;2023-07-31T14:41:58;2.97;;;1.93;;
77705;SDS011;66874;45.274;5.880;2023-07-31T14:44:23;4.30;;;2.20;;
77705;SDS011;66874;45.274;5.880;2023-07-31T14:46:48;2.43;;;2.00;;
77705;SDS011;66874;45.274;5.880;2023-07-31T14:49:14;3.07;;;2.23;;
77705;SDS011;66874;45.274;5.880;2023-07-31T14:51:39;4.93;;;2.10;;
77705;SDS011;66874;45.274;5.880;2023-07-31T14:54:05;2.83;;;2.13;;
77705;SDS011;66874;45.274;5.880;2023-07-31T14:56:30;3.50;;;2.13;;
77705;SDS011;66874;45.274;5.880;2023-07-31T14:58:56;2.27;;;1.77;;
77705;SDS011;66874;45.274;5.880;2023-07-31T15:01:23;3.33;;;2.28;;
77705;SDS011;66874;45.274;5.880;2023-07-31T15:03:49;3.45;;;2.28;;
77705;SDS011;66874;45.274;5.880;2023-07-31T15:06:14;2.57;;;1.90;;
77705;SDS011;66874;45.274;5.880;2023-07-31T15:08:40;4.60;;;2.20;;
77705;SDS011;66874;45.274;5.880;2023-07-31T15:11:07;5.75;;;2.20;;
77705;SDS011;66874;45.274;5.880;2023-07-31T15:13:32;2.08;;;1.80;;
77705;SDS011;66874;45.274;5.880;2023-07-31T15:15:58;3.45;;;2.10;;